Terminal Aerodrome Forecast
Issued by NWS

Home | Current Version | Previous Version | Text Only | Print | Product List | Glossary Off
Versions: 1 2 3 4 5 6 7 8 9 10 11 12 13

000
FTUS43 KIWX 180520
TAFSBN
TAF
KSBN 180520Z 1806/1906 24010KT P6SM SCT080
     FM181100 26012KT P6SM BKN025
     FM181500 29013G20KT P6SM BKN040
     FM182200 30007KT P6SM BKN050=

USA.gov is the U.S. government's official web portal to all federal, state and local government web resources and services.